Mandirituba, Brazil
Current Conditions -  °F | °C
As of 5:30 AM on Wednesday 26 Nov 2014 (Local Time) from SBCT Reporting Station
Overcast Overcast  
Wind Chill: 66°   Ceiling: 300
Heat Index: 66°   Visibility: 4mi
Dew Point: 64°   Wind: 0mph
Humidity: 94%   Direction: NA
Pressure: 29.83"   Gusts: NA
Location:  25.78°S, 49.33°W
Report Text: SBCT 260730Z 00000KT 6000 BKN003 OVC005 19/18 Q1010
Loading
Personal Weather Stations






























Interactive Weather Map New forecast layout! Learn more

10-Day Weather Forecast

Advertisements
Track Severe Weather on mobile